Time;durP1;ratioP1;P1;durP2;ratioP2;P2;SDS_P1;SDS_P2;PMS_P1;PMS_P2;Temp;Humidity;BMP_temperature;BMP_pressure;BME280_temperature;BME280_humidity;BME280_pressure;Samples;Min_cycle;Max_cycle;Signal;HPM_P1;HPM_P2
2023/01/07 00:04:37;;;;;;;0.30;0.25;;;;;;;13.16;100.00;100993.34;10406231;28;20087;-90
2023/01/07 00:09:39;;;;;;;0.35;0.32;;;;;;;13.45;100.00;100969.69;10406534;28;20400;-90
2023/01/07 00:14:41;;;;;;;0.40;0.40;;;;;;;13.26;100.00;100962.44;10406810;28;20045;-92
2023/01/07 00:19:42;;;;;;;1.27;0.73;;;;;;;13.51;100.00;100963.75;10406215;28;20052;-91
2023/01/07 00:24:44;;;;;;;0.75;0.75;;;;;;;13.37;100.00;100971.25;10405313;28;20409;-91
2023/01/07 00:29:46;;;;;;;0.47;0.30;;;;;;;12.81;100.00;101006.53;10405240;28;20042;-90
2023/01/07 00:34:48;;;;;;;1.13;0.65;;;;;;;13.05;100.00;101019.88;10406004;28;20485;-91
2023/01/07 00:39:49;;;;;;;1.35;0.57;;;;;;;12.82;100.00;101043.59;10406155;28;20585;-92
2023/01/07 00:44:51;;;;;;;0.25;0.25;;;;;;;12.92;100.00;101053.25;10406954;28;20051;-91
2023/01/07 00:49:53;;;;;;;0.38;0.38;;;;;;;13.02;100.00;101042.25;10423275;28;20045;-92
2023/01/07 00:54:54;;;;;;;0.55;0.38;;;;;;;12.97;100.00;101032.66;10422859;28;20049;-91
2023/01/07 00:59:56;;;;;;;0.60;0.50;;;;;;;12.97;100.00;101038.72;10406874;28;20041;-91
2023/01/07 01:04:58;;;;;;;1.00;1.00;;;;;;;13.02;100.00;101021.56;10405821;28;20045;-91
2023/01/07 01:10:01;;;;;;;0.88;0.40;;;;;;;12.98;100.00;101019.78;10406512;28;20048;-91
2023/01/07 01:15:08;;;;;;;0.43;0.43;;;;;;;12.99;100.00;100999.94;10406390;28;20072;-92
2023/01/07 01:20:13;;;;;;;0.22;0.22;;;;;;;12.70;100.00;101015.81;10405496;28;20474;-91
2023/01/07 01:25:15;;;;;;;0.20;0.20;;;;;;;12.89;100.00;101008.38;10421038;28;20099;-91
2023/01/07 01:30:17;;;;;;;0.30;0.30;;;;;;;12.77;100.00;100998.72;10404964;28;20140;-91
2023/01/07 01:35:19;;;;;;;1.00;0.40;;;;;;;12.99;100.00;100972.34;10403472;28;20076;-91
2023/01/07 01:40:21;;;;;;;1.05;0.40;;;;;;;12.85;100.00;100990.25;10419154;28;20572;-92
2023/01/07 01:45:24;;;;;;;0.40;0.30;;;;;;;12.57;100.00;100982.81;10420294;28;20468;-91
2023/01/07 01:50:42;;;;;;;0.35;0.20;;;;;;;12.98;100.00;100967.16;10403144;28;20041;-91
2023/01/07 01:56:18;;;;;;;0.10;0.10;;;;;;;12.99;100.00;100959.44;10419467;28;20045;-92
2023/01/07 02:01:22;;;;;;;8.48;0.40;;;;;;;13.09;100.00;100946.66;10388601;28;20046;-92
2023/01/07 02:06:27;;;;;;;0.63;0.52;;;;;;;13.09;100.00;100936.31;10403243;28;20099;-91
2023/01/07 02:11:47;;;;;;;0.30;0.20;;;;;;;12.92;100.00;100923.09;10402647;28;20050;-91
2023/01/07 02:16:59;;;;;;;0.65;0.45;;;;;;;13.07;100.00;100907.00;10386176;28;20108;-92
2023/01/07 02:22:16;;;;;;;0.57;0.35;;;;;;;12.98;100.00;100911.16;10401874;28;20069;-91
2023/01/07 02:27:59;;;;;;;0.20;0.17;;;;;;;12.96;100.00;100902.50;10401295;28;20046;-90
2023/01/07 02:33:25;;;;;;;0.20;0.13;;;;;;;12.96;100.00;100897.31;10401591;28;20060;-92
2023/01/07 02:38:50;;;;;;;0.50;0.30;;;;;;;12.91;100.00;100898.97;10384320;28;20050;-90
2023/01/07 02:44:19;;;;;;;0.32;0.22;;;;;;;12.79;100.00;100894.47;10402303;28;20042;-90
2023/01/07 02:49:21;;;;;;;0.30;0.30;;;;;;;12.85;100.00;100878.16;10400127;28;20405;-91
2023/01/07 02:54:27;;;;;;;0.77;0.47;;;;;;;12.99;100.00;100876.66;10383339;28;20049;-91
2023/01/07 02:59:48;;;;;;;0.38;0.20;;;;;;;13.05;100.00;100869.88;10400001;28;20515;-92
2023/01/07 03:05:07;;;;;;;0.85;0.40;;;;;;;13.26;100.00;100859.84;10399286;28;20046;-91
2023/01/07 03:10:28;;;;;;;0.75;0.52;;;;;;;13.09;100.00;100845.78;10382572;28;20049;-92
2023/01/07 03:15:39;;;;;;;0.75;0.40;;;;;;;13.11;100.00;100849.25;10399485;28;20132;-91
2023/01/07 03:20:45;;;;;;;0.80;0.17;;;;;;;13.11;100.00;100837.19;10398387;28;20069;-90
2023/01/07 03:25:50;;;;;;;0.32;0.32;;;;;;;13.22;100.00;100827.00;10381599;28;20056;-90
2023/01/07 03:30:55;;;;;;;0.28;0.28;;;;;;;13.32;100.00;100828.00;10381004;28;20042;-91
2023/01/07 03:35:59;;;;;;;0.40;0.20;;;;;;;12.85;100.00;100831.63;10381074;28;20060;-90
2023/01/07 03:41:02;;;;;;;0.77;0.30;;;;;;;12.89;100.00;100817.91;10381533;28;20042;-90
2023/01/07 03:46:04;;;;;;;0.65;0.30;;;;;;;12.90;100.00;100817.06;10382045;28;20119;-90
2023/01/07 03:51:06;;;;;;;0.03;0.03;;;;;;;13.23;100.00;100812.34;10398236;28;20038;-90
2023/01/07 03:56:08;;;;;;;0.93;0.52;;;;;;;13.20;100.00;100804.53;10397406;28;20475;-91
2023/01/07 04:01:10;;;;;;;0.20;0.10;;;;;;;12.95;100.00;100810.25;10396579;28;20097;-90
2023/01/07 04:06:12;;;;;;;0.00;0.00;;;;;;;12.99;100.00;100809.44;10379770;28;20135;-91
2023/01/07 04:11:14;;;;;;;0.40;0.20;;;;;;;13.06;100.00;100804.38;10396616;28;20052;-91
2023/01/07 04:16:16;;;;;;;0.10;0.10;;;;;;;12.91;100.00;100808.47;10379914;28;20045;-90
2023/01/07 04:21:18;;;;;;;1.10;0.52;;;;;;;12.72;100.00;100793.50;10380114;28;20482;-90
2023/01/07 04:26:19;;;;;;;0.05;0.05;;;;;;;12.62;100.00;100803.69;10395948;28;20049;-91
2023/01/07 04:31:21;;;;;;;0.03;0.03;;;;;;;12.67;100.00;100791.75;10403644;28;20049;-91
2023/01/07 04:36:23;;;;;;;2.30;0.70;;;;;;;12.38;100.00;100799.91;10402943;28;20057;-90
2023/01/07 04:41:25;;;;;;;0.30;0.30;;;;;;;12.53;100.00;100788.06;10402634;28;20596;-90
2023/01/07 04:46:56;;;;;;;0.10;0.10;;;;;;;12.88;100.00;100768.78;10402888;28;20046;-90
2023/01/07 04:51:59;;;;;;;0.10;0.10;;;;;;;12.18;100.00;100770.25;10402620;28;20073;-90
2023/01/07 04:57:01;;;;;;;0.57;0.55;;;;;;;12.15;100.00;100778.81;10419111;28;20060;-90
2023/01/07 05:02:03;;;;;;;0.68;0.30;;;;;;;12.56;100.00;100782.94;10401799;28;20049;-90
2023/01/07 05:07:06;;;;;;;0.50;0.40;;;;;;;12.40;100.00;100765.47;10418706;28;20524;-90
2023/01/07 05:12:08;;;;;;;0.75;0.40;;;;;;;12.41;100.00;100768.06;10418265;28;20042;-90
2023/01/07 05:17:10;;;;;;;0.20;0.20;;;;;;;12.29;100.00;100758.41;10418732;28;20119;-90
2023/01/07 05:22:13;;;;;;;0.17;0.17;;;;;;;12.17;100.00;100759.06;10418433;28;20041;-90
2023/01/07 05:27:15;;;;;;;0.00;0.00;;;;;;;12.30;100.00;100752.41;10401879;28;20041;-90
2023/01/07 05:32:22;;;;;;;0.77;0.25;;;;;;;12.27;100.00;100749.75;10417152;28;20046;-91
2023/01/07 05:37:24;;;;;;;0.00;0.00;;;;;;;12.31;100.00;100741.22;10418171;28;20056;-90
2023/01/07 05:42:27;;;;;;;1.58;0.28;;;;;;;12.27;100.00;100734.25;10417315;28;20088;-90
2023/01/07 05:47:28;;;;;;;0.75;0.40;;;;;;;12.17;100.00;100734.97;10375120;28;20042;-90
2023/01/07 05:52:30;;;;;;;0.17;0.10;;;;;;;11.96;100.00;100738.88;10392137;28;20056;-89
2023/01/07 05:57:32;;;;;;;0.45;0.40;;;;;;;12.15;100.00;100734.06;10376053;28;20068;-90
2023/01/07 06:02:33;;;;;;;0.28;0.10;;;;;;;12.45;100.00;100732.81;10376651;28;20551;-90
2023/01/07 06:07:35;;;;;;;0.00;0.00;;;;;;;11.74;100.00;100746.22;10376507;28;20046;-90
2023/01/07 06:12:37;;;;;;;1.27;0.65;;;;;;;11.95;100.00;100742.28;10392507;28;20057;-90
2023/01/07 06:17:39;;;;;;;0.38;0.38;;;;;;;11.96;100.00;100733.69;10375766;28;20100;-90
2023/01/07 06:22:42;;;;;;;0.10;0.10;;;;;;;11.66;100.00;100749.50;10400480;28;20046;-89
2023/01/07 06:27:43;;;;;;;0.52;0.38;;;;;;;11.98;100.00;100732.06;10416452;28;20045;-90
2023/01/07 06:32:45;;;;;;;0.30;0.30;;;;;;;12.08;100.00;100712.41;10417418;28;20052;-91
2023/01/07 06:37:46;;;;;;;0.17;0.17;;;;;;;11.71;100.00;100722.97;10417002;28;20049;-90
2023/01/07 06:49:19;;;;;;;0.25;0.17;;;;;;;12.19;100.00;100692.81;10415018;28;20034;-90
2023/01/07 06:54:20;;;;;;;0.10;0.10;;;;;;;12.10;100.00;100694.41;10416126;28;20057;-90
2023/01/07 06:59:22;;;;;;;0.47;0.15;;;;;;;11.91;100.00;100689.72;10401673;28;20448;-90
2023/01/07 07:04:24;;;;;;;0.20;0.13;;;;;;;12.08;100.00;100686.59;10423062;28;20045;-90
2023/01/07 07:09:25;;;;;;;0.85;0.47;;;;;;;12.11;100.00;100676.34;10422160;28;20046;-90
2023/01/07 07:14:27;;;;;;;0.30;0.22;;;;;;;12.20;100.00;100660.09;10423103;28;20058;-90
2023/01/07 07:19:29;;;;;;;0.30;0.28;;;;;;;11.95;100.00;100659.66;10424797;28;20038;-91
2023/01/07 07:24:31;;;;;;;0.05;0.05;;;;;;;12.30;100.00;100656.81;10429738;28;20053;-92
2023/01/07 07:29:32;;;;;;;1.08;0.45;;;;;;;12.48;100.00;100650.16;10424422;28;20045;-90
2023/01/07 07:34:34;;;;;;;1.23;0.35;;;;;;;12.29;100.00;100649.91;10421545;28;20056;-90
2023/01/07 07:39:36;;;;;;;0.17;0.15;;;;;;;11.99;100.00;100650.31;10422106;28;20095;-90
2023/01/07 07:44:38;;;;;;;0.75;0.38;;;;;;;11.95;100.00;100649.34;10421461;28;20049;-90
2023/01/07 07:49:40;;;;;;;0.00;0.00;;;;;;;12.05;100.00;100651.28;10421250;28;20053;-90
2023/01/07 07:54:41;;;;;;;1.27;0.55;;;;;;;11.97;100.00;100658.03;10402546;28;20052;-89
2023/01/07 07:59:43;;;;;;;0.00;0.00;;;;;;;12.29;100.00;100655.09;10397791;28;20056;-89
2023/01/07 08:04:45;;;;;;;0.30;0.25;;;;;;;12.21;100.00;100648.94;10418159;28;20045;-89
2023/01/07 08:09:49;;;;;;;0.00;0.00;;;;;;;12.32;100.00;100659.41;10416767;28;20046;-89
2023/01/07 08:14:51;;;;;;;0.10;0.10;;;;;;;12.09;100.00;100651.34;10421327;28;20054;-90
2023/01/07 08:26:25;;;;;;;0.33;0.30;;;;;;;12.12;100.00;100656.53;10424996;28;20038;-91
2023/01/07 08:31:27;;;;;;;0.28;0.20;;;;;;;12.51;100.00;100650.22;10424971;28;20049;-90
2023/01/07 08:36:28;;;;;;;0.00;0.00;;;;;;;12.26;100.00;100673.09;10424007;28;20045;-91
2023/01/07 08:41:30;;;;;;;0.55;0.05;;;;;;;12.11;100.00;100675.44;10423910;28;20045;-92
2023/01/07 08:46:34;;;;;;;0.10;0.00;;;;;;;12.46;100.00;100677.72;10424337;28;20049;-91
2023/01/07 08:51:36;;;;;;;0.00;0.00;;;;;;;12.18;100.00;100687.59;10422863;28;20110;-90
2023/01/07 08:56:37;;;;;;;0.00;0.00;;;;;;;12.31;100.00;100705.06;10423001;28;20113;-91
2023/01/07 09:01:39;;;;;;;0.00;0.00;;;;;;;12.52;100.00;100704.50;10423921;28;20044;-90
2023/01/07 09:06:41;;;;;;;0.05;0.05;;;;;;;12.50;100.00;100720.84;10423939;28;20053;-90
2023/01/07 09:11:43;;;;;;;0.10;0.10;;;;;;;12.76;100.00;100728.97;10422211;28;20043;-90
2023/01/07 09:16:45;;;;;;;0.10;0.10;;;;;;;12.50;100.00;100737.22;10422759;28;20501;-90
2023/01/07 09:21:47;;;;;;;2.30;0.43;;;;;;;12.96;100.00;100755.09;10421841;28;20119;-90
2023/01/07 09:26:48;;;;;;;0.20;0.20;;;;;;;12.64;100.00;100728.81;10421088;28;20045;-91
2023/01/07 09:31:50;;;;;;;0.63;0.35;;;;;;;12.24;100.00;100765.22;10421727;28;20049;-91
2023/01/07 09:36:52;;;;;;;0.68;0.30;;;;;;;12.56;100.00;100756.25;10394928;28;20061;-91
2023/01/07 09:42:20;;;;;;;0.47;0.20;;;;;;;12.79;100.00;100744.53;10390309;28;20042;-90
2023/01/07 09:47:24;;;;;;;0.28;0.20;;;;;;;12.64;100.00;100776.19;10397722;28;20117;-91
2023/01/07 09:52:32;;;;;;;0.00;0.00;;;;;;;12.98;100.00;100786.16;10421944;28;20096;-91
2023/01/07 09:57:33;;;;;;;0.00;0.00;;;;;;;13.14;100.00;100776.91;10404991;28;20061;-90
2023/01/07 10:09:50;;;;;;;0.20;0.20;;;;;;;13.24;100.00;100798.56;10391703;28;20034;-90
2023/01/07 10:15:17;;;;;;;0.00;0.00;;;;;;;13.26;100.00;100822.72;10379558;28;20533;-91
2023/01/07 10:20:57;;;;;;;0.05;0.05;;;;;;;13.06;100.00;100840.59;10405827;28;20052;-90
2023/01/07 10:26:01;;;;;;;0.20;0.10;;;;;;;12.76;100.00;100860.81;10409392;28;20052;-91
2023/01/07 10:31:05;;;;;;;0.17;0.10;;;;;;;13.12;100.00;100862.22;10421268;28;20053;-90
2023/01/07 10:36:16;;;;;;;0.00;0.00;;;;;;;13.37;100.00;100869.44;10425669;28;20045;-92
2023/01/07 10:41:41;;;;;;;0.00;0.00;;;;;;;13.37;100.00;100882.38;10427589;28;20071;-91
2023/01/07 10:47:22;;;;;;;0.38;0.13;;;;;;;13.47;100.00;100871.34;10407482;28;20386;-90
2023/01/07 10:53:02;;;;;;;0.10;0.10;;;;;;;13.39;100.00;100866.09;10408704;28;20049;-90
2023/01/07 10:58:14;;;;;;;0.00;0.00;;;;;;;13.33;100.00;100865.94;10335515;28;20056;-91
2023/01/07 11:03:21;;;;;;;0.00;0.00;;;;;;;13.86;100.00;100835.56;10383816;28;20045;-91
2023/01/07 11:08:31;;;;;;;0.00;0.00;;;;;;;14.84;100.00;100861.59;10381891;28;20493;-92
2023/01/07 11:13:36;;;;;;;0.55;0.35;;;;;;;14.82;100.00;100847.75;10421185;28;20049;-92
2023/01/07 11:18:53;;;;;;;0.00;0.00;;;;;;;14.01;100.00;100871.16;10407340;28;20049;-91
2023/01/07 11:23:55;;;;;;;0.43;0.30;;;;;;;14.47;100.00;100866.44;10407379;28;20133;-90
2023/01/07 11:29:14;;;;;;;0.00;0.00;;;;;;;14.82;100.00;100868.50;10426342;28;20092;-93
2023/01/07 11:34:25;;;;;;;0.10;0.10;;;;;;;14.51;100.00;100863.03;10424996;28;20072;-91
2023/01/07 11:39:36;;;;;;;0.00;0.00;;;;;;;15.25;100.00;100861.84;10409978;28;20049;-90
2023/01/07 11:44:38;;;;;;;0.57;0.43;;;;;;;14.32;100.00;100861.13;10426552;28;20383;-92
2023/01/07 11:49:44;;;;;;;0.08;0.08;;;;;;;14.96;100.00;100855.66;10395422;28;20555;-93
2023/01/07 11:54:52;;;;;;;0.30;0.13;;;;;;;14.32;100.00;100848.16;10406607;28;20057;-92
2023/01/07 12:00:33;;;;;;;0.03;0.00;;;;;;;-146.30;100.00;58188.94;10388734;28;20128;-94
2023/01/07 12:05:43;;;;;;;0.38;0.38;;;;;;;-146.30;100.00;58188.94;10410451;28;20045;-89
2023/01/07 12:10:45;;;;;;;0.00;0.00;;;;;;;-146.30;100.00;58188.94;10392271;28;20378;-89
2023/01/07 12:15:54;;;;;;;0.80;0.28;;;;;;;-146.30;100.00;58188.94;10415996;28;20053;-89
2023/01/07 12:27:30;;;;;;;0.32;0.32;;;;;;;13.45;100.00;100690.19;10476803;28;20891;-83
2023/01/07 12:33:01;;;;;;;3.53;0.20;;;;;;;13.38;100.00;100700.41;10445840;28;20076;-83
2023/01/07 12:38:24;;;;;;;0.70;0.10;;;;;;;13.42;100.00;100710.00;10452246;28;20453;-84
2023/01/07 12:43:51;;;;;;;0.43;0.28;;;;;;;13.63;100.00;100694.69;10444676;28;20033;-83
2023/01/07 12:49:06;;;;;;;;;;;;;;;13.61;100.00;100695.53;10441382;28;20041;-84
2023/01/07 12:54:19;;;;;;;0.52;0.15;;;;;;;13.62;100.00;100695.53;10443939;28;20012;-83
2023/01/07 12:59:31;;;;;;;0.22;0.10;;;;;;;13.67;100.00;100687.81;10427911;28;20099;-84
2023/01/07 13:05:09;;;;;;;0.00;0.00;;;;;;;13.46;100.00;100696.22;10454194;28;20049;-82
2023/01/07 13:10:15;;;;;;;0.43;0.10;;;;;;;13.63;100.00;100679.16;10443310;28;20053;-83
2023/01/07 13:15:25;;;;;;;0.20;0.08;;;;;;;13.42;100.00;100676.34;10441603;28;20041;-83
2023/01/07 13:20:51;;;;;;;0.00;0.00;;;;;;;13.46;100.00;100670.34;10445883;28;20045;-83
2023/01/07 13:26:10;;;;;;;0.47;0.22;;;;;;;13.38;100.00;100677.13;10459625;28;20044;-83
2023/01/07 13:31:53;;;;;;;0.25;0.15;;;;;;;13.45;100.00;100658.25;10446233;28;20087;-83
2023/01/07 13:37:33;;;;;;;0.10;0.10;;;;;;;13.67;100.00;100642.94;10419053;28;20050;-82
2023/01/07 13:42:53;;;;;;;0.00;0.00;;;;;;;13.23;100.00;100637.31;10429056;28;20460;-82
2023/01/07 13:48:01;;;;;;;;;;;;;;;13.11;100.00;100632.00;10434360;28;20046;-82
2023/01/07 13:53:06;;;;;;;0.32;0.20;;;;;;;13.26;100.00;100627.00;10427809;28;20347;-81
2023/01/07 13:58:30;;;;;;;0.38;0.28;;;;;;;13.05;100.00;100613.84;10413160;28;20394;-82
2023/01/07 14:03:40;;;;;;;0.03;0.03;;;;;;;12.82;100.00;100614.44;10418848;28;20053;-82
2023/01/07 14:08:42;;;;;;;;;;;;;;;12.96;100.00;100612.88;10443217;28;20046;-82
2023/01/07 14:14:11;;;;;;;0.10;0.10;;;;;;;12.96;100.00;100594.78;10453958;28;20015;-84
2023/01/07 14:19:13;;;;;;;0.00;0.00;;;;;;;13.05;100.00;100596.59;10414518;28;20045;-83
2023/01/07 14:24:47;;;;;;;0.10;0.00;;;;;;;12.84;100.00;100587.75;10413490;28;20459;-82
2023/01/07 14:29:50;;;;;;;0.05;0.00;;;;;;;12.94;100.00;100583.53;10416124;28;20560;-83
2023/01/07 14:35:00;;;;;;;0.00;0.00;;;;;;;12.74;100.00;100578.13;10427609;28;20047;-84
2023/01/07 14:40:24;;;;;;;0.10;0.00;;;;;;;12.69;100.00;100567.78;10412592;28;20057;-83
2023/01/07 14:45:35;;;;;;;0.75;0.63;;;;;;;12.76;100.00;100570.44;10415178;28;20132;-83
2023/01/07 14:50:50;;;;;;;0.13;0.10;;;;;;;12.47;100.00;100560.59;10434147;28;20057;-82
2023/01/07 14:56:10;;;;;;;0.05;0.05;;;;;;;12.49;100.00;100569.22;10412791;28;20509;-83
2023/01/07 15:01:23;;;;;;;0.03;0.03;;;;;;;12.27;100.00;100558.63;10416375;28;20077;-82
2023/01/07 15:06:29;;;;;;;0.20;0.15;;;;;;;12.26;100.00;100559.47;10412085;28;20477;-82
2023/01/07 15:16:53;;;;;;;1.17;0.75;;;;;;;12.09;100.00;100558.38;10412370;28;20124;-83
2023/01/07 15:22:00;;;;;;;1.33;1.15;;;;;;;11.94;100.00;100543.47;10406140;28;20045;-81
2023/01/07 15:27:22;;;;;;;1.83;0.95;;;;;;;11.68;100.00;100531.94;10411993;28;20408;-82
2023/01/07 15:32:31;;;;;;;0.38;0.30;;;;;;;11.95;100.00;100512.53;10398361;28;20057;-83
2023/01/07 15:37:32;;;;;;;1.10;0.77;;;;;;;11.83;100.00;100507.19;10410975;28;20045;-83
2023/01/07 15:42:34;;;;;;;1.55;0.85;;;;;;;11.77;100.00;100500.22;10411375;28;20110;-83
2023/01/07 15:47:41;;;;;;;0.85;0.35;;;;;;;11.75;100.00;100487.31;10412387;28;20408;-83
2023/01/07 15:53:11;;;;;;;0.13;0.08;;;;;;;11.77;100.00;100486.47;10422676;28;20068;-83
2023/01/07 15:58:32;;;;;;;1.23;0.43;;;;;;;11.54;100.00;100474.09;10400680;28;20053;-83
2023/01/07 16:03:37;;;;;;;0.35;0.30;;;;;;;11.66;100.00;100460.50;10406668;28;20049;-82
2023/01/07 16:08:42;;;;;;;2.00;0.50;;;;;;;11.83;100.00;100453.00;10416873;28;20554;-82
2023/01/07 16:13:58;;;;;;;0.20;0.20;;;;;;;11.61;100.00;100449.25;10413155;28;20500;-84
2023/01/07 16:19:02;;;;;;;0.17;0.17;;;;;;;11.82;100.00;100440.94;10411956;28;20539;-83
2023/01/07 16:24:04;;;;;;;0.05;0.05;;;;;;;11.68;100.00;100449.34;10414214;28;20045;-82
2023/01/07 16:29:17;;;;;;;0.10;0.10;;;;;;;11.51;100.00;100431.06;10434287;28;20041;-82
2023/01/07 16:34:25;;;;;;;0.10;0.10;;;;;;;11.63;100.00;100435.53;10436686;28;20080;-82
2023/01/07 16:39:30;;;;;;;0.10;0.10;;;;;;;11.49;100.00;100452.53;10409326;28;20057;-83
2023/01/07 16:44:45;;;;;;;0.10;0.10;;;;;;;11.53;100.00;100436.22;10398069;28;20041;-84
2023/01/07 16:49:51;;;;;;;9.20;2.45;;;;;;;11.56;100.00;100423.38;10389223;28;20056;-79
2023/01/07 16:54:54;;;;;;;1.17;1.05;;;;;;;11.79;100.00;100425.41;10413492;28;20033;-79
2023/01/07 16:59:57;;;;;;;0.60;0.47;;;;;;;11.80;100.00;100420.28;10412803;28;20068;-79
2023/01/07 17:05:26;;;;;;;0.35;0.10;;;;;;;11.74;100.00;100418.47;10412624;28;20046;-79
2023/01/07 17:10:31;;;;;;;0.10;0.10;;;;;;;11.64;100.00;100426.94;10412625;28;20041;-80
2023/01/07 17:15:38;;;;;;;0.08;0.03;;;;;;;11.67;100.00;100416.66;10420125;28;20069;-79
2023/01/07 17:20:50;;;;;;;0.10;0.10;;;;;;;11.82;100.00;100415.13;10419575;28;20057;-79
2023/01/07 17:26:05;;;;;;;0.73;0.35;;;;;;;11.78;100.00;100408.19;10420674;28;20041;-79
2023/01/07 17:31:06;;;;;;;0.95;0.40;;;;;;;11.60;100.00;100414.84;10418815;28;20073;-79
2023/01/07 17:36:16;;;;;;;0.00;0.00;;;;;;;11.65;100.00;100415.78;10419586;28;20038;-79
2023/01/07 17:46:40;;;;;;;0.30;0.30;;;;;;;11.88;100.00;100418.66;10427145;28;20049;-78
2023/01/07 17:51:45;;;;;;;0.00;0.00;;;;;;;11.54;100.00;100402.72;10412235;28;20072;-78
2023/01/07 17:57:12;;;;;;;0.88;0.13;;;;;;;11.67;100.00;100410.63;10418114;28;20051;-79
2023/01/07 18:02:21;;;;;;;0.00;0.00;;;;;;;11.46;100.00;100395.72;10417807;28;20046;-78
2023/01/07 18:07:22;;;;;;;0.20;0.10;;;;;;;11.60;100.00;100345.16;10401609;28;20492;-79
2023/01/07 18:12:30;;;;;;;0.17;0.17;;;;;;;11.42;100.00;100320.88;10401124;28;20073;-79
2023/01/07 18:17:32;;;;;;;0.50;0.10;;;;;;;11.29;100.00;100303.50;10418571;28;20052;-78
2023/01/07 18:22:33;;;;;;;0.32;0.17;;;;;;;11.21;100.00;100320.56;10400568;28;20056;-79
2023/01/07 18:27:35;;;;;;;0.10;0.08;;;;;;;10.92;100.00;100275.50;10417018;28;20087;-78
2023/01/07 18:32:36;;;;;;;0.00;0.00;;;;;;;10.82;100.00;100247.00;10417272;28;20409;-78
2023/01/07 18:37:39;;;;;;;0.15;0.15;;;;;;;10.99;100.00;100237.78;10408018;28;20037;-78
2023/01/07 18:42:41;;;;;;;0.10;0.10;;;;;;;10.92;100.00;100217.94;10411610;28;20077;-79
2023/01/07 18:47:44;;;;;;;0.10;0.10;;;;;;;10.86;100.00;100207.53;10415899;28;20046;-79
2023/01/07 18:52:46;;;;;;;0.10;0.10;;;;;;;10.76;100.00;100204.84;10402965;28;20500;-80
2023/01/07 18:57:48;;;;;;;1.45;0.47;;;;;;;10.75;100.00;100203.13;10399543;28;20049;-79
2023/01/07 19:02:53;;;;;;;0.25;0.25;;;;;;;10.73;100.00;100212.53;10415072;28;20046;-80
2023/01/07 19:07:54;;;;;;;0.30;0.13;;;;;;;10.95;100.00;100207.69;10399251;28;20041;-79
2023/01/07 19:12:56;;;;;;;0.45;0.35;;;;;;;10.93;100.00;100219.66;10408413;28;20075;-80
2023/01/07 19:17:58;;;;;;;0.20;0.20;;;;;;;10.91;100.00;100229.97;10418644;28;20045;-80
2023/01/07 19:23:00;;;;;;;0.75;0.10;;;;;;;10.92;100.00;100235.97;10407374;28;20104;-79
2023/01/07 19:28:01;;;;;;;0.30;0.20;;;;;;;11.07;100.00;100243.91;10395250;28;20065;-80
2023/01/07 19:33:03;;;;;;;0.13;0.13;;;;;;;10.97;100.00;100252.38;10409435;28;20050;-79
2023/01/07 19:38:05;;;;;;;0.10;0.10;;;;;;;11.24;100.00;100256.16;10391125;28;20052;-79
2023/01/07 19:43:07;;;;;;;1.65;0.55;;;;;;;11.00;100.00;100257.56;10402512;28;20053;-79
2023/01/07 19:48:08;;;;;;;1.27;1.20;;;;;;;11.02;100.00;100253.31;10395703;28;20341;-78
2023/01/07 19:53:11;;;;;;;0.38;0.28;;;;;;;11.16;100.00;100257.78;10406456;28;20136;-79
2023/01/07 19:58:13;;;;;;;0.55;0.47;;;;;;;11.27;100.00;100251.06;10407483;28;20588;-79
2023/01/07 20:03:14;;;;;;;0.30;0.30;;;;;;;11.24;100.00;100253.59;10405598;28;20045;-79
2023/01/07 20:08:16;;;;;;;0.32;0.30;;;;;;;11.27;100.00;100256.22;10410164;28;20087;-78
2023/01/07 20:13:18;;;;;;;0.43;0.40;;;;;;;11.07;100.00;100246.50;10418258;28;20568;-79
2023/01/07 20:18:21;;;;;;;0.30;0.25;;;;;;;11.16;100.00;100237.16;10392820;28;20446;-77
2023/01/07 20:23:23;;;;;;;0.70;0.35;;;;;;;11.27;100.00;100233.00;10385093;28;20427;-79
2023/01/07 20:28:24;;;;;;;1.75;0.30;;;;;;;11.20;100.00;100233.78;10398013;28;20084;-78
2023/01/07 20:33:28;;;;;;;0.70;0.55;;;;;;;11.22;100.00;100244.97;10442019;28;20111;-78
2023/01/07 20:38:29;;;;;;;0.52;0.45;;;;;;;11.35;100.00;100238.25;10414135;28;20070;-79
2023/01/07 20:43:33;;;;;;;1.23;0.47;;;;;;;11.19;100.00;100222.59;10405324;28;20060;-78
2023/01/07 20:48:35;;;;;;;0.00;0.00;;;;;;;11.36;100.00;100227.09;10420278;28;20129;-78
2023/01/07 20:53:38;;;;;;;0.75;0.40;;;;;;;11.47;100.00;100247.84;10396509;28;20050;-78
2023/01/07 20:58:41;;;;;;;1.83;0.32;;;;;;;11.35;100.00;100221.06;10430796;28;20049;-78
2023/01/07 21:03:44;;;;;;;0.32;0.20;;;;;;;11.37;100.00;100211.63;10420439;28;20132;-78
2023/01/07 21:08:47;;;;;;;0.32;0.28;;;;;;;11.47;100.00;100211.72;10420364;28;20053;-78
2023/01/07 21:13:51;;;;;;;0.30;0.25;;;;;;;11.43;100.00;100211.69;10420311;28;20060;-78
2023/01/07 21:18:54;;;;;;;0.30;0.10;;;;;;;11.67;100.00;100189.59;10404414;28;20485;-79
2023/01/07 21:23:55;;;;;;;0.00;0.00;;;;;;;11.66;100.00;100194.72;10420321;28;20081;-78
2023/01/07 21:28:57;;;;;;;0.28;0.17;;;;;;;11.77;100.00;100174.19;10403469;28;20053;-79
2023/01/07 21:33:59;;;;;;;0.45;0.20;;;;;;;11.59;100.00;100155.09;10418320;28;20033;-79
2023/01/07 21:39:01;;;;;;;0.10;0.10;;;;;;;11.58;100.00;100154.25;10418435;28;20443;-78
2023/01/07 21:44:02;;;;;;;2.00;0.10;;;;;;;11.60;100.00;100125.88;10411978;28;20050;-79
2023/01/07 21:49:05;;;;;;;0.20;0.20;;;;;;;11.47;100.00;100118.88;10412717;28;20472;-79
2023/01/07 21:54:07;;;;;;;0.08;0.08;;;;;;;11.69;100.00;100120.81;10402105;28;20037;-79
2023/01/07 21:59:09;;;;;;;0.10;0.10;;;;;;;11.84;100.00;100099.41;10417535;28;20045;-78
2023/01/07 22:04:11;;;;;;;0.20;0.20;;;;;;;11.57;100.00;100100.06;10409506;28;20573;-77
2023/01/07 22:09:14;;;;;;;0.00;0.00;;;;;;;11.58;100.00;100102.66;10376975;28;20054;-79
2023/01/07 22:14:17;;;;;;;0.47;0.20;;;;;;;11.77;100.00;100081.28;10403049;28;20172;-78
2023/01/07 22:19:19;;;;;;;0.00;0.00;;;;;;;11.56;100.00;100113.81;10417956;28;20139;-78
2023/01/07 22:24:20;;;;;;;0.20;0.20;;;;;;;11.79;100.00;100105.41;10417593;28;20061;-79
2023/01/07 22:29:22;;;;;;;1.23;0.63;;;;;;;11.77;100.00;100094.19;10401763;28;20045;-78
2023/01/07 22:34:24;;;;;;;1.88;0.55;;;;;;;11.74;100.00;100102.78;10423210;28;20128;-78
2023/01/07 22:39:36;;;;;;;0.50;0.50;;;;;;;11.79;100.00;100105.41;10410908;28;20131;-78
2023/01/07 22:44:44;;;;;;;0.20;0.10;;;;;;;11.82;100.00;100110.56;10401419;28;20073;-78
2023/01/07 22:49:47;;;;;;;0.10;0.10;;;;;;;11.84;100.00;100114.03;10440908;28;20068;-79
2023/01/07 22:54:51;;;;;;;0.32;0.30;;;;;;;11.56;100.00;100106.91;10418092;28;20037;-78
2023/01/07 22:59:53;;;;;;;0.20;0.20;;;;;;;11.75;100.00;100091.63;10420073;28;20532;-78
2023/01/07 23:04:56;;;;;;;0.13;0.10;;;;;;;11.51;100.00;100094.81;10415309;28;20100;-77
2023/01/07 23:09:58;;;;;;;0.20;0.10;;;;;;;11.59;100.00;100057.06;10397661;28;20053;-77
2023/01/07 23:14:59;;;;;;;0.00;0.00;;;;;;;11.48;100.00;100040.66;10414897;28;20096;-78
2023/01/07 23:20:01;;;;;;;0.22;0.22;;;;;;;11.68;100.00;100041.66;10414523;28;20095;-78
2023/01/07 23:25:03;;;;;;;1.02;0.85;;;;;;;11.58;100.00;100039.84;10412581;28;20053;-82
2023/01/07 23:30:08;;;;;;;0.20;0.20;;;;;;;11.78;100.00;100039.16;10429621;28;20127;-82
2023/01/07 23:35:13;;;;;;;2.03;0.75;;;;;;;11.64;100.00;100050.25;10395864;28;20409;-82
2023/01/07 23:40:18;;;;;;;0.47;0.25;;;;;;;11.81;100.00;100045.19;10412514;28;20124;-82
2023/01/07 23:45:19;;;;;;;0.10;0.10;;;;;;;11.63;100.00;100048.50;10424636;28;20046;-83
2023/01/07 23:50:21;;;;;;;0.17;0.17;;;;;;;11.75;100.00;100061.50;10411453;28;20056;-82
2023/01/07 23:55:22;;;;;;;0.28;0.28;;;;;;;11.80;100.00;100050.38;10424570;28;20065;-82
